Time;durP1;ratioP1;P1;durP2;ratioP2;P2;SDS_P1;SDS_P2;PMS_P1;PMS_P2;Temp;Humidity;BMP_temperature;BMP_pressure;BME280_temperature;BME280_humidity;BME280_pressure;Samples;Min_cycle;Max_cycle;Signal;HPM_P1;HPM_P2
2022/03/01 00:00:48;;;;;;;27.97;15.30;;;;;;;-3.85;67.05;101765.93;1666898;85;21610;-64
2022/03/01 00:03:15;;;;;;;27.73;13.53;;;;;;;-3.88;67.12;101770.90;1658998;85;21076;-64
2022/03/01 00:05:42;;;;;;;20.95;12.50;;;;;;;-3.91;67.18;101777.15;1657813;85;21969;-64
2022/03/01 00:08:09;;;;;;;25.92;14.53;;;;;;;-3.94;67.19;101771.91;1660799;85;20974;-64
2022/03/01 00:10:35;;;;;;;21.53;12.93;;;;;;;-4.00;67.39;101765.27;1657275;85;21052;-64
2022/03/01 00:13:02;;;;;;;21.97;12.80;;;;;;;-4.02;67.41;101769.42;1661323;85;21046;-64
2022/03/01 00:15:29;;;;;;;23.73;11.23;;;;;;;-4.04;67.50;101771.02;1662444;84;21013;-65
2022/03/01 00:17:55;;;;;;;23.40;13.33;;;;;;;-4.09;67.57;101769.56;1657299;85;21511;-65
2022/03/01 00:20:22;;;;;;;29.40;14.03;;;;;;;-4.09;67.57;101769.56;1654256;85;21227;-65
2022/03/01 00:22:49;;;;;;;21.65;11.70;;;;;;;-4.10;67.58;101768.20;1653298;85;21092;-64
2022/03/01 00:25:16;;;;;;;23.83;12.63;;;;;;;-4.11;67.56;101763.91;1659382;85;21105;-65
2022/03/01 00:27:43;;;;;;;22.70;12.65;;;;;;;-4.12;67.55;101762.14;1653441;85;20993;-65
2022/03/01 00:30:13;;;;;;;22.07;11.53;;;;;;;-4.15;67.51;101759.05;1659462;85;21429;-64
2022/03/01 00:32:40;;;;;;;20.23;12.05;;;;;;;-4.18;67.53;101759.33;1656128;85;21013;-65
2022/03/01 00:35:09;;;;;;;21.40;12.90;;;;;;;-4.19;67.58;101760.14;1658528;85;21476;-64
2022/03/01 00:37:36;;;;;;;19.35;12.05;;;;;;;-4.21;67.59;101761.73;1651289;85;21758;-65
2022/03/01 00:40:04;;;;;;;19.73;11.88;;;;;;;-4.23;67.62;101760.79;1653764;85;21090;-64
2022/03/01 00:42:31;;;;;;;22.35;11.83;;;;;;;-4.27;67.62;101763.20;1653260;85;21091;-64
2022/03/01 00:44:58;;;;;;;19.77;11.40;;;;;;;-4.28;67.70;101758.92;1664466;85;21032;-64
2022/03/01 00:47:25;;;;;;;23.90;12.03;;;;;;;-4.29;67.74;101750.77;1658580;85;21108;-64
2022/03/01 00:49:52;;;;;;;20.92;11.90;;;;;;;-4.29;67.79;101755.87;1657140;85;21103;-64
2022/03/01 00:52:19;;;;;;;20.40;11.47;;;;;;;-4.30;67.78;101752.86;1666763;85;20973;-64
2022/03/01 00:54:45;;;;;;;21.60;11.73;;;;;;;-4.32;67.81;101746.81;1665560;85;21094;-65
2022/03/01 00:57:12;;;;;;;17.05;10.78;;;;;;;-4.32;67.83;101740.44;1649693;84;21646;-65
2022/03/01 00:59:39;;;;;;;18.82;10.72;;;;;;;-4.33;67.87;101750.17;1653220;84;21093;-64
2022/03/01 01:02:06;;;;;;;20.45;10.38;;;;;;;-4.35;67.89;101739.02;1654694;85;21054;-65
2022/03/01 01:04:32;;;;;;;19.33;10.53;;;;;;;-4.36;67.92;101747.49;1654908;85;21055;-64
2022/03/01 01:06:59;;;;;;;19.63;10.17;;;;;;;-4.36;67.99;101739.84;1654612;85;21114;-64
2022/03/01 01:09:25;;;;;;;21.23;11.15;;;;;;;-4.36;68.03;101739.84;1653062;85;21784;-64
2022/03/01 01:11:52;;;;;;;19.40;11.03;;;;;;;-4.36;68.00;101737.29;1658505;85;21094;-64
2022/03/01 01:14:19;;;;;;;20.03;10.23;;;;;;;-4.37;68.02;101740.66;1658016;85;21589;-65
2022/03/01 01:16:45;;;;;;;18.53;10.90;;;;;;;-4.38;68.05;101731.64;1657910;85;21026;-64
2022/03/01 01:19:12;;;;;;;24.65;11.25;;;;;;;-4.40;68.05;101735.39;1653042;85;21070;-64
2022/03/01 01:24:24;;;;;;;20.32;10.10;;;;;;;-4.41;68.09;101736.20;1654928;85;21081;-64
2022/03/01 01:26:51;;;;;;;20.15;10.03;;;;;;;-4.42;68.14;101731.91;1654304;85;21616;-64
2022/03/01 01:29:18;;;;;;;18.85;10.10;;;;;;;-4.43;68.20;101732.70;1654923;85;21062;-64
2022/03/01 01:31:45;;;;;;;18.42;10.50;;;;;;;-4.44;68.20;101723.72;1655940;85;21047;-64
2022/03/01 01:34:11;;;;;;;17.87;10.20;;;;;;;-4.45;68.27;101729.23;1651355;85;21564;-64
2022/03/01 01:36:38;;;;;;;20.93;10.77;;;;;;;-4.45;68.26;101736.88;1653276;85;21646;-65
2022/03/01 01:39:05;;;;;;;17.27;10.20;;;;;;;-4.46;68.28;101732.56;1652772;85;21562;-65
2022/03/01 01:41:31;;;;;;;23.80;10.87;;;;;;;-4.47;68.33;101733.38;1653132;85;21727;-64
2022/03/01 01:43:59;;;;;;;20.52;9.18;;;;;;;-4.48;68.31;101734.19;1650488;85;21437;-64
2022/03/01 01:46:25;;;;;;;15.88;9.48;;;;;;;-4.49;68.33;101736.25;1652668;85;21103;-64
2022/03/01 01:48:52;;;;;;;17.10;9.03;;;;;;;-4.50;68.33;101735.79;1658448;85;21018;-64
2022/03/01 01:51:19;;;;;;;19.40;9.43;;;;;;;-4.50;68.38;101738.34;1652212;85;21565;-65
2022/03/01 01:53:45;;;;;;;22.60;8.83;;;;;;;-4.53;68.38;101736.92;1663718;84;21098;-64
2022/03/01 01:56:13;;;;;;;18.10;9.08;;;;;;;-4.54;68.44;101733.88;1663957;85;21513;-64
2022/03/01 01:58:40;;;;;;;17.92;9.85;;;;;;;-4.54;68.48;101741.53;1657221;84;20970;-64
2022/03/01 02:01:06;;;;;;;14.00;9.05;;;;;;;-4.56;68.55;101736.38;1653737;85;21051;-65
2022/03/01 02:05:29;;;;;;;15.75;9.00;;;;;;;-4.53;68.60;101729.28;1857138;75;22676;-63
2022/03/01 02:07:56;;;;;;;16.20;8.45;;;;;;;-4.59;68.61;101727.73;1831607;77;20975;-63
2022/03/01 02:10:23;;;;;;;17.02;8.50;;;;;;;-4.60;68.63;101725.95;1832807;76;21420;-63
2022/03/01 02:12:49;;;;;;;18.33;10.27;;;;;;;-4.61;68.63;101725.50;1830245;76;20986;-63
2022/03/01 02:15:17;;;;;;;14.28;8.80;;;;;;;-4.59;68.66;101727.73;1833014;77;21476;-63
2022/03/01 02:17:45;;;;;;;18.55;8.88;;;;;;;-4.59;68.66;101732.83;1828605;76;20934;-63
2022/03/01 02:20:23;;;;;;;16.25;8.83;;;;;;;-4.58;68.69;101726.91;1834889;76;21520;-64
2022/03/01 02:22:56;;;;;;;14.23;8.33;;;;;;;-4.57;68.68;101723.55;1836855;76;21928;-65
2022/03/01 02:25:24;;;;;;;14.28;8.00;;;;;;;-4.57;68.71;101728.64;1833550;76;20930;-65
2022/03/01 02:27:52;;;;;;;15.10;8.90;;;;;;;-4.58;68.72;101718.86;1770948;80;21032;-65
2022/03/01 02:30:19;;;;;;;20.82;8.50;;;;;;;-4.58;68.75;101723.95;1777338;80;21089;-65
2022/03/01 02:32:45;;;;;;;17.65;8.55;;;;;;;-4.57;68.77;101720.59;1793191;78;21559;-65
2022/03/01 02:35:12;;;;;;;18.55;8.53;;;;;;;-4.57;68.78;101718.45;1762278;79;21064;-65
2022/03/01 02:37:40;;;;;;;15.93;9.03;;;;;;;-4.57;68.78;101716.77;1785073;79;21689;-65
2022/03/01 02:40:09;;;;;;;15.88;9.45;;;;;;;-4.57;68.80;101719.31;1780025;79;21045;-65
2022/03/01 02:42:38;;;;;;;17.65;8.65;;;;;;;-4.55;68.83;101719.41;1777776;78;21469;-65
2022/03/01 02:45:08;;;;;;;21.73;10.15;;;;;;;-4.57;68.83;101712.08;1795577;77;21127;-65
2022/03/01 02:47:34;;;;;;;21.37;9.80;;;;;;;-4.57;68.90;101705.30;1756432;79;21890;-65
2022/03/01 02:50:02;;;;;;;14.83;8.93;;;;;;;-4.59;68.92;101709.88;1763922;78;20974;-64
2022/03/01 02:52:29;;;;;;;15.78;9.95;;;;;;;-4.61;68.90;101714.03;1783654;79;21559;-64
2022/03/01 02:54:56;;;;;;;16.20;9.83;;;;;;;-4.65;68.96;101705.38;1791710;78;21493;-64
2022/03/01 02:57:24;;;;;;;18.00;10.17;;;;;;;-4.64;69.02;101704.97;1793662;77;21090;-64
2022/03/01 02:59:52;;;;;;;18.75;10.32;;;;;;;-4.66;69.07;101702.73;1776518;78;21570;-64
2022/03/01 03:02:19;;;;;;;18.12;9.98;;;;;;;-4.68;69.02;101704.34;1792793;77;20983;-65
2022/03/01 03:04:46;;;;;;;22.60;10.08;;;;;;;-4.72;69.08;101696.55;1789270;78;21029;-65
2022/03/01 03:07:13;;;;;;;25.27;11.63;;;;;;;-4.73;69.10;101706.28;1784370;79;21479;-65
2022/03/01 03:09:40;;;;;;;;;;;;;;;-4.75;69.09;101701.51;1779694;79;20951;-65
2022/03/01 03:12:11;;;;;;;21.23;10.05;;;;;;;-4.76;69.19;101698.50;1787034;79;22516;-65
2022/03/01 03:14:39;;;;;;;15.55;9.80;;;;;;;-4.75;69.21;101698.96;1776077;80;20998;-65
2022/03/01 03:17:06;;;;;;;14.15;9.50;;;;;;;-4.76;69.20;101693.78;1787065;78;21614;-65
2022/03/01 03:19:33;;;;;;;18.07;11.25;;;;;;;-4.78;69.28;101701.37;1787786;78;20958;-65
2022/03/01 03:22:00;;;;;;;18.70;11.63;;;;;;;-4.79;69.29;101702.19;1758068;80;21111;-65
2022/03/01 03:24:26;;;;;;;21.80;11.43;;;;;;;-4.81;69.29;101696.13;1755513;80;21118;-64
2022/03/01 03:26:53;;;;;;;17.77;10.77;;;;;;;-4.83;69.31;101692.63;1774338;80;21106;-64
2022/03/01 03:29:20;;;;;;;17.80;10.93;;;;;;;-4.85;69.31;101691.67;1782889;79;21001;-65
2022/03/01 03:31:46;;;;;;;17.60;10.95;;;;;;;-4.86;69.38;101695.04;1758214;80;21009;-65
2022/03/01 03:34:13;;;;;;;24.87;11.65;;;;;;;-4.88;69.36;101691.54;1760032;80;21520;-65
2022/03/01 03:36:45;;;;;;;18.47;10.70;;;;;;;-4.87;69.37;101693.30;1759193;80;21073;-65
2022/03/01 03:39:13;;;;;;;18.67;10.28;;;;;;;-4.86;69.40;101689.94;1784611;78;21883;-65
2022/03/01 03:41:40;;;;;;;24.30;11.75;;;;;;;-4.87;69.49;101678.02;1781391;79;21061;-65
2022/03/01 03:44:07;;;;;;;26.35;11.50;;;;;;;-4.88;69.55;101688.98;1756170;80;20962;-65
2022/03/01 03:46:35;;;;;;;23.80;10.63;;;;;;;-4.88;69.54;101688.13;1759431;80;21122;-65
2022/03/01 03:49:03;;;;;;;20.17;11.28;;;;;;;-4.89;69.55;101687.25;1762164;80;21450;-65
2022/03/01 03:51:30;;;;;;;19.07;10.53;;;;;;;-4.90;69.57;101685.52;1776970;79;20973;-65
2022/03/01 03:53:57;;;;;;;24.00;11.00;;;;;;;-4.91;69.60;101678.66;1778457;80;21568;-64
2022/03/01 03:56:23;;;;;;;18.17;11.50;;;;;;;-4.92;69.64;101682.02;1778037;80;20901;-65
2022/03/01 03:58:50;;;;;;;21.73;13.20;;;;;;;-4.92;69.64;101681.15;1749935;80;20993;-67
2022/03/01 04:01:18;;;;;;;20.17;12.30;;;;;;;-4.93;69.65;101680.25;1770988;79;21467;-65
2022/03/01 04:03:44;;;;;;;26.30;12.18;;;;;;;-4.94;69.72;101675.97;1769682;79;25716;-66
2022/03/01 04:06:11;;;;;;;26.60;11.70;;;;;;;-4.93;69.77;101676.84;1774215;79;21010;-65
2022/03/01 04:08:38;;;;;;;74.47;13.10;;;;;;;-4.94;69.75;101681.06;1781945;79;20969;-65
2022/03/01 04:11:05;;;;;;;27.30;12.13;;;;;;;-4.95;69.73;101675.51;1759987;80;21037;-65
2022/03/01 04:13:32;;;;;;;32.25;13.03;;;;;;;-4.94;69.79;101678.52;1798135;78;21437;-65
2022/03/01 04:15:59;;;;;;;32.90;12.03;;;;;;;-4.94;69.86;101670.87;1802843;78;21110;-65
2022/03/01 04:18:25;;;;;;;27.67;11.67;;;;;;;-4.95;69.87;101666.59;1762954;78;20949;-65
2022/03/01 04:20:52;;;;;;;24.00;10.47;;;;;;;-4.94;69.92;101670.87;1762500;80;21025;-65
2022/03/01 04:23:19;;;;;;;23.27;11.23;;;;;;;-4.93;69.91;101666.23;1793157;78;20971;-65
2022/03/01 04:25:46;;;;;;;28.77;11.53;;;;;;;-4.91;69.94;101665.92;1768772;79;21436;-65
2022/03/01 04:28:12;;;;;;;36.10;12.07;;;;;;;-4.92;69.99;101664.19;1794988;77;20920;-66
2022/03/01 04:30:39;;;;;;;41.45;12.88;;;;;;;-4.91;70.01;101657.00;1791694;77;20999;-65
2022/03/01 04:33:06;;;;;;;28.07;11.30;;;;;;;-4.92;70.02;101660.77;1762130;79;20935;-65
2022/03/01 04:35:34;;;;;;;20.80;10.78;;;;;;;-4.96;70.07;101657.18;1766767;78;20990;-66
2022/03/01 04:38:00;;;;;;;34.30;10.98;;;;;;;-4.98;70.15;101656.26;1792284;79;21457;-65
2022/03/01 04:40:27;;;;;;;42.23;11.43;;;;;;;-4.99;70.18;101651.95;1791216;79;20888;-64
2022/03/01 04:42:54;;;;;;;19.17;10.95;;;;;;;-4.99;70.28;101648.13;1792821;79;21109;-65
2022/03/01 04:45:20;;;;;;;24.73;10.27;;;;;;;-5.00;70.31;101651.48;1785155;79;21091;-65
2022/03/01 04:47:47;;;;;;;20.80;10.37;;;;;;;-5.00;70.30;101648.53;1782545;79;20982;-65
2022/03/01 04:50:14;;;;;;;25.23;11.05;;;;;;;-4.96;70.42;101649.54;1785184;78;21073;-65
2022/03/01 04:52:41;;;;;;;27.00;11.90;;;;;;;-4.93;70.40;101642.03;1803990;77;20970;-65
2022/03/01 04:55:10;;;;;;;18.92;10.95;;;;;;;-4.93;70.37;101644.58;1821208;78;20934;-65
2022/03/01 04:57:42;;;;;;;29.35;14.07;;;;;;;-4.93;70.35;101635.66;1806781;77;20942;-65
2022/03/01 05:00:11;;;;;;;25.20;12.82;;;;;;;-4.95;70.37;101636.02;1815203;77;21582;-65
2022/03/01 05:02:44;;;;;;;26.45;11.38;;;;;;;-4.97;70.38;101635.06;1786510;79;21078;-65
2022/03/01 05:05:11;;;;;;;18.85;10.98;;;;;;;-4.97;70.41;101633.80;1799402;78;20962;-65
2022/03/01 05:07:41;;;;;;;26.97;12.05;;;;;;;-5.00;70.43;101639.61;1798855;78;21065;-65
2022/03/01 05:10:11;;;;;;;31.60;12.90;;;;;;;-5.01;70.43;101638.28;1789928;79;20982;-65
2022/03/01 05:12:48;;;;;;;33.28;14.07;;;;;;;-5.03;70.51;101643.70;1806187;79;21475;-65
2022/03/01 05:15:17;;;;;;;23.27;12.70;;;;;;;-5.06;70.51;101648.25;1801077;79;21120;-65
2022/03/01 05:17:47;;;;;;;24.63;11.30;;;;;;;-5.07;70.52;101641.80;1792879;79;20970;-65
2022/03/01 05:20:16;;;;;;;22.22;12.13;;;;;;;-5.06;70.53;101642.29;1804038;79;21532;-65
2022/03/01 05:22:43;;;;;;;135.32;65.60;;;;;;;-5.05;70.60;101644.02;1792221;79;20947;-65
2022/03/01 05:25:14;;;;;;;82.53;44.50;;;;;;;-5.01;70.70;101639.56;1797653;79;21010;-65
2022/03/01 05:27:43;;;;;;;31.57;17.70;;;;;;;-4.97;70.72;101640.16;1781884;79;21311;-65
2022/03/01 05:30:13;;;;;;;45.28;27.90;;;;;;;-4.93;70.70;101640.76;1738478;81;22436;-65
2022/03/01 05:32:46;;;;;;;33.35;21.42;;;;;;;-4.90;70.73;101643.48;1764804;79;21543;-65
2022/03/01 05:35:16;;;;;;;37.30;20.15;;;;;;;-4.86;70.72;101631.34;1756344;81;21001;-64
2022/03/01 05:37:44;;;;;;;41.00;26.50;;;;;;;-4.85;70.68;101639.84;1762875;79;21598;-65
2022/03/01 05:40:12;;;;;;;31.30;18.67;;;;;;;-4.86;70.70;101633.88;1757002;81;21183;-65
2022/03/01 05:42:39;;;;;;;31.52;17.48;;;;;;;-4.85;70.69;101635.62;1752927;79;20890;-65
2022/03/01 05:45:07;;;;;;;23.12;13.72;;;;;;;-4.83;70.68;101635.30;1755052;79;20989;-65
2022/03/01 05:47:33;;;;;;;26.57;13.85;;;;;;;-4.79;70.76;101642.30;1765538;79;21009;-65
2022/03/01 05:50:00;;;;;;;28.77;13.70;;;;;;;-4.79;70.79;101646.12;1760808;80;20973;-65
2022/03/01 05:52:27;;;;;;;39.80;14.33;;;;;;;-4.75;70.90;101647.98;1770659;79;21632;-65
2022/03/01 05:54:57;;;;;;;60.23;21.27;;;;;;;-4.47;71.15;101639.03;1758657;79;21855;-65
2022/03/01 05:57:27;;;;;;;71.70;35.10;;;;;;;-4.29;70.99;101624.52;1764924;81;21347;-65
2022/03/01 05:59:52;;;;;;;162.92;21.75;;;;;;;-3.88;71.31;101636.91;1764610;81;20989;-65
2022/03/01 06:02:18;;;;;;;53.90;15.43;;;;;;;-3.31;71.42;101635.80;1773143;79;20958;-64
2022/03/01 06:04:45;;;;;;;43.65;15.88;;;;;;;-2.79;71.17;101639.97;1771229;79;21682;-65
2022/03/01 06:07:12;;;;;;;45.60;14.30;;;;;;;-2.37;70.84;101636.38;1764500;79;21572;-65
2022/03/01 06:09:38;;;;;;;48.33;14.83;;;;;;;-2.01;70.71;101630.82;1765825;79;21010;-65
2022/03/01 06:12:07;;;;;;;30.67;13.87;;;;;;;-1.70;70.33;101623.34;1766041;80;22059;-64
2022/03/01 06:14:34;;;;;;;45.30;14.60;;;;;;;-1.36;70.23;101639.81;1759848;79;21032;-65
2022/03/01 06:17:03;;;;;;;41.48;16.12;;;;;;;-1.07;70.06;101637.28;1771784;80;21199;-65
2022/03/01 06:19:29;;;;;;;;;;;;;;;-0.81;69.94;101643.19;1772067;79;21048;-66
2022/03/01 06:21:57;;;;;;;36.45;14.30;;;;;;;-0.55;69.75;101641.41;1757157;80;20114;-65
2022/03/01 06:24:24;;;;;;;36.15;14.47;;;;;;;-0.34;69.71;101642.00;1766386;79;20998;-66
2022/03/01 06:26:52;;;;;;;32.63;15.05;;;;;;;-0.10;69.69;101646.09;1777050;79;21579;-66
2022/03/01 06:29:19;;;;;;;43.70;14.43;;;;;;;0.12;69.77;101647.11;1760580;79;21241;-66
2022/03/01 06:31:47;;;;;;;32.93;12.70;;;;;;;0.32;69.66;101640.34;1774227;79;20939;-65
2022/03/01 06:34:13;;;;;;;34.38;13.40;;;;;;;0.62;69.81;101647.52;1787593;79;21507;-67
2022/03/01 06:36:40;;;;;;;29.57;13.57;;;;;;;0.87;69.66;101646.82;1782788;79;20895;-63
2022/03/01 06:39:07;;;;;;;33.63;14.93;;;;;;;1.08;69.48;101639.56;1769702;79;21044;-63
2022/03/01 06:41:34;;;;;;;33.70;18.70;;;;;;;1.37;69.61;101651.33;1764509;80;21004;-64
2022/03/01 06:44:01;;;;;;;45.15;22.13;;;;;;;1.63;69.45;101646.73;1766933;79;21555;-64
2022/03/01 06:46:30;;;;;;;42.15;19.02;;;;;;;1.86;69.67;101648.05;1776565;79;20950;-63
2022/03/01 06:48:56;;;;;;;48.35;21.20;;;;;;;2.18;69.91;101647.33;1765021;79;20926;-64
2022/03/01 06:51:28;;;;;;;43.02;20.68;;;;;;;2.49;69.70;101640.55;1757109;80;20963;-65
2022/03/01 06:53:55;;;;;;;46.13;20.00;;;;;;;2.77;69.80;101645.30;1762334;79;21042;-67
2022/03/01 06:56:21;;;;;;;39.45;19.75;;;;;;;3.01;69.38;101638.80;1767461;79;21063;-65
2022/03/01 06:58:49;;;;;;;61.63;23.60;;;;;;;3.17;69.40;101630.85;1783014;79;20891;-66
2022/03/01 07:01:16;;;;;;;44.58;18.25;;;;;;;3.31;69.37;101631.47;1774907;79;21064;-66
2022/03/01 07:03:43;;;;;;;37.20;18.40;;;;;;;3.52;69.34;101632.58;1777536;79;20952;-65
2022/03/01 07:06:12;;;;;;;26.95;16.23;;;;;;;3.78;69.63;101631.19;1759184;79;21003;-66
2022/03/01 07:08:40;;;;;;;27.17;15.65;;;;;;;3.86;68.73;101635.55;1769745;79;21001;-65
2022/03/01 07:11:07;;;;;;;25.23;14.23;;;;;;;3.86;68.81;101635.55;1774119;79;20942;-66
2022/03/01 07:13:34;;;;;;;26.53;13.53;;;;;;;3.92;69.00;101637.80;1769205;79;21031;-68
2022/03/01 07:16:00;;;;;;;16.47;11.80;;;;;;;3.99;68.78;101621.91;1767410;79;21005;-66
2022/03/01 07:18:29;;;;;;;18.98;11.78;;;;;;;3.93;68.17;101625.73;1761650;80;21791;-66
2022/03/01 07:20:57;;;;;;;;;;;;;;;3.87;68.84;101629.13;1751202;80;20990;-66
2022/03/01 07:23:24;;;;;;;16.50;10.70;;;;;;;3.89;68.40;101630.41;1768197;80;20120;-65
2022/03/01 07:25:50;;;;;;;21.20;10.78;;;;;;;3.73;68.38;101622.51;1775114;79;20946;-65
2022/03/01 07:28:18;;;;;;;23.45;10.43;;;;;;;3.59;69.11;101622.78;1757685;79;20911;-65
2022/03/01 07:30:45;;;;;;;17.23;10.55;;;;;;;3.50;68.50;101630.00;1769896;80;21425;-65
2022/03/01 07:33:12;;;;;;;18.30;11.00;;;;;;;3.29;68.60;101627.13;1760858;80;21052;-66
2022/03/01 07:35:39;;;;;;;18.48;11.48;;;;;;;3.06;68.51;101626.83;1769472;79;20955;-66
2022/03/01 07:38:05;;;;;;;22.47;13.07;;;;;;;2.61;69.38;101633.04;1780497;79;20930;-65
2022/03/01 07:40:32;;;;;;;17.50;11.75;;;;;;;2.61;69.38;101633.04;1774365;79;21332;-64
2022/03/01 07:42:59;;;;;;;19.83;11.67;;;;;;;2.58;69.51;101639.02;1754541;79;21623;-65
2022/03/01 07:45:26;;;;;;;19.03;11.00;;;;;;;2.64;69.62;101642.11;1773483;79;20951;-66
2022/03/01 07:47:52;;;;;;;17.97;10.73;;;;;;;2.58;69.22;101632.99;1768027;79;21632;-65
2022/03/01 07:50:20;;;;;;;23.87;11.43;;;;;;;2.40;68.82;101629.24;1764168;80;20938;-66
2022/03/01 07:52:47;;;;;;;17.23;10.70;;;;;;;2.31;69.02;101629.09;1774986;80;21462;-65
2022/03/01 07:55:14;;;;;;;14.60;9.78;;;;;;;2.22;68.90;101632.81;1764452;79;21434;-65
2022/03/01 07:57:41;;;;;;;19.62;10.82;;;;;;;2.24;69.04;101631.11;1776146;80;21535;-65
2022/03/01 08:00:09;;;;;;;24.63;11.48;;;;;;;2.25;69.03;101639.31;1750689;80;21028;-66
2022/03/01 08:02:37;;;;;;;20.97;10.58;;;;;;;2.24;68.88;101631.11;1770386;79;20968;-66
2022/03/01 08:05:09;;;;;;;14.23;9.38;;;;;;;2.23;68.84;101633.25;1775220;79;21024;-64
2022/03/01 08:07:40;;;;;;;18.52;10.70;;;;;;;2.24;68.55;101637.55;1774251;78;21335;-65
2022/03/01 08:10:09;;;;;;;22.60;11.25;;;;;;;2.24;68.73;101632.40;1774970;78;21306;-65
2022/03/01 08:12:36;;;;;;;15.40;9.50;;;;;;;2.31;68.91;101634.25;1809372;78;20985;-65
2022/03/01 08:15:07;;;;;;;15.48;10.05;;;;;;;2.40;68.66;101626.67;1778346;78;20994;-66
2022/03/01 08:17:34;;;;;;;17.35;9.78;;;;;;;2.45;68.53;101625.04;1790794;77;21056;-67
2022/03/01 08:20:01;;;;;;;14.95;9.38;;;;;;;2.45;68.15;101628.91;1786130;79;21251;-66
2022/03/01 08:22:27;;;;;;;22.43;11.70;;;;;;;2.49;68.30;101625.08;1815378;77;20938;-65
2022/03/01 08:24:54;;;;;;;19.00;10.60;;;;;;;2.55;68.29;101629.05;1803917;78;21087;-65
2022/03/01 08:27:21;;;;;;;15.95;10.25;;;;;;;2.64;68.36;101626.64;1787716;78;21258;-65
2022/03/01 08:29:47;;;;;;;17.50;10.60;;;;;;;2.72;68.23;101626.34;1782994;78;21534;-65
2022/03/01 08:32:14;;;;;;;20.30;9.85;;;;;;;2.82;68.24;101625.61;1778605;79;21352;-65
2022/03/01 08:34:41;;;;;;;16.65;9.90;;;;;;;2.90;68.11;101622.72;1794729;78;20997;-65
2022/03/01 08:37:07;;;;;;;20.68;10.78;;;;;;;2.87;67.42;101623.97;1786174;78;21558;-65
2022/03/01 08:39:34;;;;;;;20.03;10.30;;;;;;;2.86;67.63;101617.09;1788120;79;21052;-65
2022/03/01 08:42:01;;;;;;;19.85;11.18;;;;;;;2.89;67.68;101617.13;1790517;79;21586;-66
2022/03/01 08:44:28;;;;;;;21.55;11.57;;;;;;;2.97;67.69;101613.77;1788522;78;21112;-65
2022/03/01 08:46:55;;;;;;;18.42;11.28;;;;;;;3.07;67.93;101607.91;1784471;78;21040;-65
2022/03/01 08:49:22;;;;;;;20.30;12.43;;;;;;;3.07;67.93;101607.91;1794318;79;20946;-66
2022/03/01 08:51:49;;;;;;;24.30;12.88;;;;;;;3.15;67.58;101616.63;1782839;78;21009;-66
2022/03/01 08:54:17;;;;;;;19.60;11.63;;;;;;;3.25;67.46;101613.33;1783445;78;20997;-65
2022/03/01 08:56:44;;;;;;;33.45;10.63;;;;;;;3.30;67.44;101606.48;1777812;79;21477;-65
2022/03/01 08:59:12;;;;;;;57.88;11.63;;;;;;;3.29;67.10;101604.76;1795947;78;21097;-65
2022/03/01 09:01:38;;;;;;;30.68;10.40;;;;;;;3.26;66.65;101591.81;1770097;78;20989;-65
2022/03/01 09:04:08;;;;;;;18.00;9.87;;;;;;;3.16;66.59;101600.27;1772776;78;20888;-65
2022/03/01 09:06:35;;;;;;;16.25;9.55;;;;;;;3.12;66.72;101597.23;1777922;79;21480;-65
2022/03/01 09:09:06;;;;;;;16.25;10.15;;;;;;;3.12;66.78;101602.39;1784824;79;21149;-64
2022/03/01 09:11:33;;;;;;;20.05;9.38;;;;;;;3.16;67.01;101592.53;1789798;78;21024;-65
2022/03/01 09:14:00;;;;;;;19.45;9.90;;;;;;;3.21;66.66;101593.47;1783568;79;21033;-65
2022/03/01 09:16:27;;;;;;;19.20;9.20;;;;;;;3.23;66.60;101594.78;1759322;80;20995;-65
2022/03/01 09:18:56;;;;;;;16.48;10.00;;;;;;;3.27;66.66;101596.12;1794627;78;20970;-65
2022/03/01 09:21:25;;;;;;;15.80;9.73;;;;;;;3.38;66.90;101592.81;1786673;79;21432;-65
2022/03/01 09:23:51;;;;;;;14.45;8.83;;;;;;;3.48;66.56;101585.63;1776941;79;21005;-65
2022/03/01 09:26:19;;;;;;;16.67;9.48;;;;;;;3.49;66.35;101591.22;1812457;77;21535;-65
2022/03/01 09:28:48;;;;;;;23.75;10.10;;;;;;;3.53;66.64;101578.80;1796089;78;21507;-65
2022/03/01 09:31:15;;;;;;;15.40;9.98;;;;;;;3.60;66.57;101578.00;1818273;77;20981;-65
2022/03/01 09:33:45;;;;;;;13.83;9.60;;;;;;;3.72;66.44;101583.30;1777085;78;21073;-65
2022/03/01 09:36:15;;;;;;;14.55;7.53;;;;;;;3.72;66.44;101583.30;1762519;79;21076;-65
2022/03/01 09:38:43;;;;;;;16.85;9.00;;;;;;;3.77;66.25;101572.59;1802378;77;20993;-67
2022/03/01 09:41:13;;;;;;;14.03;8.03;;;;;;;3.76;65.98;101570.86;1769968;80;21594;-66
2022/03/01 09:43:41;;;;;;;16.32;8.53;;;;;;;3.69;65.79;101566.47;1781983;79;20927;-65
2022/03/01 09:46:10;;;;;;;16.23;9.53;;;;;;;3.67;65.82;101557.86;1773388;79;21078;-65
2022/03/01 09:48:38;;;;;;;16.75;9.88;;;;;;;3.72;66.00;101561.33;1768280;80;20933;-65
2022/03/01 09:51:08;;;;;;;15.10;9.15;;;;;;;3.77;65.79;101558.38;1765544;79;21670;-65
2022/03/01 09:53:36;;;;;;;14.00;7.00;;;;;;;3.86;66.08;101552.86;1766791;79;21002;-66
2022/03/01 09:56:04;;;;;;;10.15;6.15;;;;;;;3.93;65.74;101552.08;1790943;79;21070;-66
2022/03/01 09:58:31;;;;;;;8.30;5.72;;;;;;;3.95;65.57;101552.94;1792499;79;22140;-67
2022/03/01 10:00:58;;;;;;;13.15;7.15;;;;;;;3.98;65.20;101542.66;1810190;78;20927;-68
2022/03/01 10:03:27;;;;;;;8.20;6.20;;;;;;;3.89;64.80;101547.72;1800955;78;21101;-68
2022/03/01 10:06:09;;;;;;;7.90;5.40;;;;;;;3.85;64.77;101540.80;1798384;78;20938;-67
2022/03/01 10:08:38;;;;;;;10.60;5.72;;;;;;;3.80;64.93;101539.02;1780274;78;21526;-66
2022/03/01 10:11:05;;;;;;;7.58;5.90;;;;;;;3.78;64.73;101543.33;1802183;77;21189;-67
2022/03/01 10:13:36;;;;;;;10.93;5.80;;;;;;;3.80;64.85;101533.86;1797318;78;21077;-66
2022/03/01 10:16:16;;;;;;;9.75;5.60;;;;;;;3.86;64.83;101538.64;1798659;78;22281;-66
2022/03/01 10:18:54;;;;;;;9.93;5.60;;;;;;;3.90;64.77;101533.53;1822768;77;21452;-66
2022/03/01 10:21:25;;;;;;;9.48;5.72;;;;;;;3.97;64.76;101529.27;1794757;78;21625;-66
2022/03/01 10:23:55;;;;;;;11.20;5.50;;;;;;;3.98;64.41;101528.44;1792431;78;21526;-66
2022/03/01 10:26:31;;;;;;;11.60;5.95;;;;;;;3.98;64.41;101527.14;1776458;79;21534;-65
2022/03/01 10:29:00;;;;;;;12.58;5.83;;;;;;;4.04;64.66;101525.47;1814247;77;21032;-66
2022/03/01 10:31:30;;;;;;;13.65;5.72;;;;;;;4.03;64.27;101528.02;1795337;77;20973;-67
2022/03/01 10:34:04;;;;;;;7.85;5.30;;;;;;;4.05;64.26;101518.57;1799007;78;20980;-68
2022/03/01 10:36:46;;;;;;;9.93;6.12;;;;;;;4.08;64.27;101514.72;1803113;78;21913;-68
2022/03/01 10:39:33;;;;;;;8.95;5.72;;;;;;;4.08;64.04;101512.13;1807665;78;21048;-66
2022/03/01 10:42:08;;;;;;;13.30;6.22;;;;;;;4.12;64.09;101515.20;1723854;81;21616;-64
2022/03/01 10:44:32;;;;;;;15.65;7.70;;;;;;;4.24;63.99;101507.52;1726105;81;21234;-66
2022/03/01 10:47:03;;;;;;;11.83;7.50;;;;;;;4.27;63.75;101504.09;1730213;81;21069;-64
2022/03/01 10:49:33;;;;;;;9.05;5.78;;;;;;;4.23;63.52;101504.94;1723142;82;21856;-65
2022/03/01 10:52:05;;;;;;;8.88;6.28;;;;;;;4.28;63.71;101502.37;1711512;82;20964;-65
2022/03/01 10:54:41;;;;;;;9.20;6.00;;;;;;;4.33;63.73;101496.80;1710128;82;20961;-65
2022/03/01 10:57:23;;;;;;;9.95;6.42;;;;;;;4.35;63.49;101494.67;1713378;80;21632;-65
2022/03/01 10:59:52;;;;;;;9.63;6.53;;;;;;;4.33;63.26;101492.92;1738012;81;21077;-65
2022/03/01 11:02:19;;;;;;;10.53;5.67;;;;;;;4.30;63.64;101487.73;1742267;81;21601;-65
2022/03/01 11:04:51;;;;;;;9.75;6.75;;;;;;;4.35;63.39;101491.23;1743512;81;20969;-65
2022/03/01 11:07:20;;;;;;;13.95;6.42;;;;;;;4.36;63.34;101487.77;1731979;82;21477;-65
2022/03/01 11:09:48;;;;;;;12.13;6.87;;;;;;;4.36;63.12;101485.19;1738829;81;21013;-65
2022/03/01 11:12:18;;;;;;;9.63;5.97;;;;;;;4.38;63.33;101484.77;1729595;81;21096;-65
2022/03/01 11:15:03;;;;;;;9.50;5.85;;;;;;;4.47;63.21;101486.12;1710562;82;21316;-65
2022/03/01 11:17:47;;;;;;;11.00;6.50;;;;;;;4.46;63.13;101479.23;1704054;82;21026;-65
2022/03/01 11:20:40;;;;;;;18.62;6.80;;;;;;;4.48;62.83;101472.31;1726641;81;21622;-65
2022/03/01 11:23:11;;;;;;;13.28;6.10;;;;;;;4.41;62.82;101473.16;1717190;82;20996;-65
2022/03/01 11:25:41;;;;;;;19.40;7.72;;;;;;;4.39;62.70;101469.69;1738143;81;21605;-66